Airfield :
LOGIN :

Register | Disclaimer

   EN    FR    IT 

 










Legend :    VFR   Marginal VFR   IFR   Intensive IFR   Very Intensive IFR
Visi :
Ceiling :
>= 8 km
>= 3000ft
5 to 8 km
1000 to 3000 ft
1500m to 5 km
500 to 1000 ft
800 to 1500m
200 to 500 ft
< 800m
< 200 ft
Symbols :   Thunderstorms  Fog  Heavy snow  Heavy precipitations  Wind > 20 kt
SIGMETs :     Misc.  Thunderstorms  Icing  Turbulence  Mountain Waves  Volcanic Ashes







- Airport Elevation : 1046 ft
- IATA code : NUE


EDDN - Nuremberg

CURRENT METAR :
  • 172150Z VRB04KT CAVOK 03/M03 Q1029

EXPIRED METARs :
  • 172120Z 06006KT 030V100 CAVOK 03/M03 Q1029
  • 172050Z 07008KT 030V100 CAVOK 03/M03 Q1029 NOSIG
  • 172020Z 07007KT 040V110 CAVOK 03/M03 Q1029 NOSIG
  • 171950Z 08007KT 050V110 CAVOK 03/M03 Q1029 NOSIG
  • 171920Z 09006KT 050V140 CAVOK 03/M03 Q1029 NOSIG

TAF TAF EDDN
Valid from the 17 at 18:00 until the 18 at 18:00 UTC


171700Z 1718/1818 08010KT CAVOK
BECMG 1816/1818 08005KT
No reported NOTAMs for that airfield.



MET'MAP, your aeronautical weather chart ! - Copyright ORBIFLY December 2007 - Disclaimer

ORBIFLY MET'MAP TEAM :

Programming & Development : Alexandra Zaïnal
Concept & Development : Baudouin d'Aumeries
Co-Development & Prog : Marc-Olivier Méhu
Technical & hardware support : Manuel Goepfert

Contact : metmap@orbifly.com




SOURCES & CREDITS :

   NOAA